Time;durP1;ratioP1;P1;durP2;ratioP2;P2;SDS_P1;SDS_P2;PMS_P1;PMS_P2;Temp;Humidity;BMP_temperature;BMP_pressure;BME280_temperature;BME280_humidity;BME280_pressure;Samples;Min_cycle;Max_cycle;Signal;HPM_P1;HPM_P2
2022/11/22 00:00:06;;;;;;;5.13;2.17;;;8.00;92.00;;;;;;5115370;28;20028;-74
2022/11/22 00:02:33;;;;;;;6.28;2.30;;;7.90;92.20;;;;;;5116130;28;20021;-74
2022/11/22 00:04:59;;;;;;;6.43;2.13;;;7.90;92.40;;;;;;5115979;28;20034;-74
2022/11/22 00:07:24;;;;;;;5.53;2.17;;;7.80;92.80;;;;;;5114905;28;20044;-74
2022/11/22 00:09:50;;;;;;;3.95;1.70;;;7.80;92.50;;;;;;5115259;28;20020;-74
2022/11/22 00:12:15;;;;;;;8.90;2.38;;;7.90;92.50;;;;;;5114904;28;20110;-74
2022/11/22 00:14:41;;;;;;;5.38;2.38;;;7.90;92.60;;;;;;5115003;28;20027;-74
2022/11/22 00:17:06;;;;;;;7.07;2.55;;;7.80;92.60;;;;;;5114829;28;20074;-74
2022/11/22 00:19:34;;;;;;;5.47;1.75;;;7.80;92.70;;;;;;5115783;28;20032;-74
2022/11/22 00:22:00;;;;;;;4.50;2.50;;;7.80;92.70;;;;;;5114960;28;20024;-74
2022/11/22 00:24:25;;;;;;;7.10;2.25;;;7.80;92.80;;;;;;5114741;28;20035;-74
2022/11/22 00:26:51;;;;;;;3.88;1.90;;;7.80;92.90;;;;;;5115547;28;20064;-73
2022/11/22 00:29:17;;;;;;;6.32;2.30;;;7.70;93.00;;;;;;5115602;28;20047;-74
2022/11/22 00:31:42;;;;;;;5.80;1.75;;;7.80;93.00;;;;;;5115544;28;20510;-74
2022/11/22 00:34:08;;;;;;;4.05;2.65;;;7.80;93.10;;;;;;5097661;28;20032;-74
2022/11/22 00:36:33;;;;;;;5.80;2.58;;;7.80;93.20;;;;;;5114608;28;20028;-74
2022/11/22 00:38:59;;;;;;;6.38;2.50;;;7.80;93.20;;;;;;5115394;28;20032;-74
2022/11/22 00:41:25;;;;;;;7.75;2.63;;;7.70;93.20;;;;;;5115376;28;20035;-74
2022/11/22 00:43:50;;;;;;;5.57;2.70;;;7.80;93.30;;;;;;5115330;28;20036;-74
2022/11/22 00:46:16;;;;;;;9.77;2.72;;;7.80;93.30;;;;;;5114237;28;20040;-74
2022/11/22 00:48:41;;;;;;;5.68;2.50;;;7.80;93.30;;;;;;5115245;28;20024;-74
2022/11/22 00:51:07;;;;;;;7.28;2.70;;;7.80;93.30;;;;;;5114297;28;20050;-74
2022/11/22 00:53:32;;;;;;;4.47;2.05;;;7.80;93.20;;;;;;5115130;28;20049;-74
2022/11/22 00:55:58;;;;;;;5.95;2.45;;;7.80;93.30;;;;;;5115074;28;20028;-74
2022/11/22 00:58:24;;;;;;;5.40;2.45;;;7.80;93.40;;;;;;5115032;28;20092;-74
2022/11/22 01:00:49;;;;;;;5.82;1.90;;;7.80;93.40;;;;;;5115006;28;20084;-74
2022/11/22 01:03:15;;;;;;;6.40;2.78;;;7.90;93.50;;;;;;5114944;28;20028;-74
2022/11/22 01:05:41;;;;;;;5.93;2.80;;;7.90;93.50;;;;;;5114811;28;20024;-74
2022/11/22 01:08:07;;;;;;;7.68;2.70;;;7.90;93.50;;;;;;5113365;28;20062;-74
2022/11/22 01:10:35;;;;;;;4.95;2.85;;;7.90;93.40;;;;;;5114638;28;20036;-74
2022/11/22 01:13:01;;;;;;;6.13;2.40;;;7.90;93.30;;;;;;5113743;28;20062;-74
2022/11/22 01:15:26;;;;;;;4.75;2.50;;;7.90;93.40;;;;;;5114693;28;20024;-74
2022/11/22 01:17:52;;;;;;;7.35;2.22;;;7.90;93.40;;;;;;5113596;28;20116;-74
2022/11/22 01:20:18;;;;;;;5.22;2.53;;;7.90;93.30;;;;;;5114766;28;20049;-74
2022/11/22 01:22:43;;;;;;;6.00;2.65;;;7.90;93.30;;;;;;5114543;28;20040;-74
2022/11/22 01:25:09;;;;;;;6.45;2.95;;;7.90;93.20;;;;;;5113373;28;20028;-74
2022/11/22 01:27:35;;;;;;;9.00;3.50;;;8.00;93.10;;;;;;5114473;28;20024;-74
2022/11/22 01:30:01;;;;;;;7.03;2.60;;;7.90;93.40;;;;;;5113395;28;20035;-74
2022/11/22 01:32:27;;;;;;;4.47;2.53;;;7.90;93.00;;;;;;5114396;28;20071;-74
2022/11/22 01:34:52;;;;;;;6.60;3.05;;;7.90;92.90;;;;;;5114353;28;20035;-74
2022/11/22 01:37:18;;;;;;;8.20;3.03;;;7.90;92.90;;;;;;5113328;28;20044;-74
2022/11/22 01:39:44;;;;;;;8.02;2.75;;;7.90;92.90;;;;;;5114380;28;20094;-74
2022/11/22 01:42:10;;;;;;;8.50;2.60;;;7.80;93.00;;;;;;5113364;28;20062;-74
2022/11/22 01:44:39;;;;;;;7.72;2.75;;;7.90;93.20;;;;;;5114161;28;20383;-74
2022/11/22 01:47:17;;;;;;;5.38;2.65;;;7.90;93.20;;;;;;5114122;28;20041;-74
2022/11/22 01:49:59;;;;;;;6.22;2.83;;;7.90;93.10;;;;;;5114259;28;20023;-74
2022/11/22 01:52:29;;;;;;;6.85;2.80;;;7.90;93.00;;;;;;5114110;28;20036;-74
2022/11/22 01:54:59;;;;;;;7.60;2.78;;;7.90;92.90;;;;;;5114031;28;20020;-73
2022/11/22 01:57:30;;;;;;;8.40;3.08;;;7.90;92.90;;;;;;5113922;28;20016;-74
2022/11/22 02:00:00;;;;;;;7.63;2.88;;;7.80;92.80;;;;;;5114105;28;20024;-74
2022/11/22 02:02:26;;;;;;;3.47;2.33;;;7.80;92.80;;;;;;5112838;28;20023;-74
2022/11/22 02:04:56;;;;;;;4.97;2.50;;;7.70;92.90;;;;;;5113765;28;20460;-74
2022/11/22 02:07:33;;;;;;;9.77;2.70;;;7.70;93.00;;;;;;5112755;28;20038;-74
2022/11/22 02:09:59;;;;;;;5.40;2.28;;;7.70;93.10;;;;;;5113632;28;20051;-74
2022/11/22 02:12:30;;;;;;;5.15;2.63;;;7.60;93.00;;;;;;5113758;28;20465;-74
2022/11/22 02:14:57;;;;;;;6.25;2.60;;;7.60;93.00;;;;;;5113758;28;20425;-74
2022/11/22 02:17:25;;;;;;;6.28;2.80;;;7.60;92.90;;;;;;5113687;28;20021;-74
2022/11/22 02:19:52;;;;;;;6.18;2.80;;;7.60;92.90;;;;;;5113687;28;20383;-74
2022/11/22 02:22:56;;;;;;;3.70;1.77;;;7.60;92.90;;;;;;5113616;28;20021;-74
2022/11/22 02:25:29;;;;;;;9.35;1.67;;;7.50;92.90;;;;;;5113545;28;20031;-74
2022/11/22 02:27:55;;;;;;;3.70;1.70;;;7.50;93.20;;;;;;5113716;28;20043;-74
2022/11/22 02:30:20;;;;;;;6.40;2.00;;;7.50;93.10;;;;;;5113007;28;20111;-74
2022/11/22 02:32:47;;;;;;;5.03;1.80;;;7.50;93.00;;;;;;5113506;28;20107;-74
2022/11/22 02:35:18;;;;;;;9.10;2.03;;;7.50;93.00;;;;;;5113505;28;20031;-74
2022/11/22 02:37:44;;;;;;;3.50;1.55;;;7.50;93.40;;;;;;5113445;28;20059;-74
2022/11/22 02:40:13;;;;;;;1.90;1.10;;;7.50;93.00;;;;;;5112427;28;20028;-74
2022/11/22 02:42:43;;;;;;;8.27;2.03;;;7.40;93.00;;;;;;5113420;28;20052;-74
2022/11/22 02:45:09;;;;;;;6.70;1.92;;;7.40;93.00;;;;;;5113333;28;20027;-74
2022/11/22 02:47:34;;;;;;;4.18;1.27;;;7.50;93.00;;;;;;5113390;28;20029;-74
2022/11/22 02:50:00;;;;;;;11.18;1.50;;;7.40;93.00;;;;;;5113369;28;20029;-74
2022/11/22 02:52:26;;;;;;;6.15;1.35;;;7.40;92.90;;;;;;5112387;28;20065;-74
2022/11/22 02:54:51;;;;;;;7.72;2.13;;;7.40;92.90;;;;;;5113312;28;20062;-74
2022/11/22 02:57:17;;;;;;;7.47;1.80;;;7.40;93.00;;;;;;5113291;28;20090;-74
2022/11/22 02:59:42;;;;;;;7.60;1.85;;;7.40;93.00;;;;;;5112413;28;20035;-74
2022/11/22 03:02:08;;;;;;;6.03;1.77;;;7.50;92.90;;;;;;5113221;28;20028;-74
2022/11/22 03:04:34;;;;;;;10.60;1.30;;;7.50;92.90;;;;;;5113242;28;20033;-74
2022/11/22 03:07:00;;;;;;;6.18;1.17;;;7.50;92.90;;;;;;5113112;28;20039;-74
2022/11/22 03:09:27;;;;;;;9.73;1.75;;;7.40;92.80;;;;;;5112022;28;20093;-74
2022/11/22 03:11:53;;;;;;;7.50;1.60;;;7.50;92.70;;;;;;5113153;28;20023;-74
2022/11/22 03:14:19;;;;;;;14.57;2.03;;;7.50;92.60;;;;;;5112092;28;20042;-74
2022/11/22 03:16:46;;;;;;;5.50;1.38;;;7.40;92.50;;;;;;5113110;28;20020;-74
2022/11/22 03:19:12;;;;;;;2.30;1.08;;;7.40;92.50;;;;;;5112201;28;20055;-74
2022/11/22 03:21:39;;;;;;;6.57;1.90;;;7.40;92.40;;;;;;5113070;28;20028;-74
2022/11/22 03:24:06;;;;;;;6.95;2.15;;;7.40;92.30;;;;;;5113042;28;20421;-74
2022/11/22 03:26:31;;;;;;;9.50;2.05;;;7.40;92.30;;;;;;5112026;28;20028;-74
2022/11/22 03:28:57;;;;;;;6.68;1.48;;;7.40;92.30;;;;;;5113011;28;20032;-74
2022/11/22 03:31:23;;;;;;;5.65;1.13;;;7.30;92.10;;;;;;5095055;28;20033;-74
2022/11/22 03:33:48;;;;;;;5.50;1.25;;;7.30;92.20;;;;;;5113108;28;20455;-74
2022/11/22 03:36:14;;;;;;;9.13;1.80;;;7.30;92.10;;;;;;5112125;28;20039;-74
2022/11/22 03:38:41;;;;;;;5.63;1.85;;;7.30;92.10;;;;;;5113065;28;20098;-74
2022/11/22 03:41:06;;;;;;;8.75;1.48;;;7.20;92.00;;;;;;5113607;28;20024;-74
2022/11/22 03:43:32;;;;;;;5.10;1.85;;;7.20;91.90;;;;;;5116488;28;20070;-74
2022/11/22 03:45:57;;;;;;;4.68;1.10;;;7.20;91.90;;;;;;5116417;28;20028;-74
2022/11/22 03:48:23;;;;;;;4.03;1.50;;;7.20;92.20;;;;;;5116414;28;20031;-74
2022/11/22 03:50:48;;;;;;;5.88;1.83;;;7.20;91.70;;;;;;5115436;28;20028;-74
2022/11/22 03:53:14;;;;;;;5.93;1.80;;;7.10;91.70;;;;;;5115378;28;20028;-74
2022/11/22 03:55:40;;;;;;;9.57;2.08;;;7.20;91.70;;;;;;5115338;28;20032;-74
2022/11/22 03:58:05;;;;;;;8.55;1.60;;;7.10;91.70;;;;;;5115212;28;20062;-74
2022/11/22 04:00:32;;;;;;;2.55;1.05;;;7.10;91.70;;;;;;5115234;28;20036;-74
2022/11/22 04:02:58;;;;;;;9.43;1.38;;;7.10;91.60;;;;;;5116114;28;20021;-74
2022/11/22 04:05:23;;;;;;;3.72;1.30;;;7.10;91.60;;;;;;5116004;28;20038;-74
2022/11/22 04:07:54;;;;;;;6.75;1.30;;;7.10;91.60;;;;;;5115129;28;20024;-74
2022/11/22 04:10:21;;;;;;;13.57;1.65;;;7.10;91.40;;;;;;5115867;28;20040;-74
2022/11/22 04:12:47;;;;;;;4.88;1.52;;;7.10;91.40;;;;;;5115104;28;20024;-74
2022/11/22 04:15:12;;;;;;;13.25;1.30;;;7.10;91.40;;;;;;5116044;28;20547;-74
2022/11/22 04:17:40;;;;;;;6.40;1.15;;;7.10;91.40;;;;;;5115870;28;20028;-74
2022/11/22 04:23:02;;;;;;;8.80;1.20;;;7.10;91.30;;;;;;5115821;28;20053;-74
2022/11/22 04:25:30;;;;;;;7.75;1.52;;;7.00;91.30;;;;;;5115697;28;20028;-74
2022/11/22 04:27:56;;;;;;;6.38;1.27;;;7.00;91.30;;;;;;5115649;28;20027;-74
2022/11/22 04:32:44;;;;;;;3.75;1.15;;;6.90;91.20;;;;;;5115617;28;20083;-74
2022/11/22 04:33:09;;;;;;;8.88;1.30;;;6.90;91.20;;;;;;5115569;28;20111;-74
2022/11/22 04:35:35;;;;;;;4.38;1.65;;;6.80;91.30;;;;;;5114639;28;20024;-74
2022/11/22 04:38:01;;;;;;;9.32;1.35;;;6.80;91.20;;;;;;5115471;28;20024;-74
2022/11/22 04:40:27;;;;;;;8.82;1.15;;;6.80;91.20;;;;;;5115433;28;20094;-74
2022/11/22 04:45:36;;;;;;;4.93;1.02;;;6.70;91.20;;;;;;5115420;28;20100;-74
2022/11/22 04:48:02;;;;;;;4.00;0.80;;;6.70;91.30;;;;;;5115250;28;20028;-74
2022/11/22 04:53:15;;;;;;;10.27;1.33;;;6.70;91.30;;;;;;5114815;28;20039;-74
2022/11/22 04:55:42;;;;;;;7.80;1.88;;;6.60;91.30;;;;;;5115096;28;20024;-74
2022/11/22 04:58:08;;;;;;;2.95;1.10;;;6.60;91.40;;;;;;5115036;28;20024;-74
2022/11/22 05:00:34;;;;;;;2.30;1.10;;;6.60;91.30;;;;;;5115144;28;20058;-74
2022/11/22 05:03:00;;;;;;;7.40;1.67;;;6.50;91.30;;;;;;5114953;28;20024;-74
2022/11/22 05:05:26;;;;;;;8.80;1.65;;;6.50;91.30;;;;;;5114806;28;20020;-74
2022/11/22 05:07:52;;;;;;;5.97;1.50;;;6.50;91.30;;;;;;5114794;28;20028;-74
2022/11/22 05:10:18;;;;;;;4.00;0.98;;;6.50;91.20;;;;;;5113637;28;20048;-74
2022/11/22 05:12:43;;;;;;;8.23;1.63;;;6.50;91.20;;;;;;5114808;28;20032;-74
2022/11/22 05:15:09;;;;;;;5.28;1.15;;;6.50;91.20;;;;;;5113801;28;20032;-74
2022/11/22 05:17:37;;;;;;;6.60;1.60;;;6.50;91.00;;;;;;5114732;28;20024;-75
2022/11/22 05:20:03;;;;;;;6.72;1.02;;;6.50;91.10;;;;;;5114649;28;20029;-74
2022/11/22 05:25:13;;;;;;;5.13;1.33;;;6.40;91.10;;;;;;5113896;28;20123;-74
2022/11/22 05:27:39;;;;;;;5.18;1.15;;;6.40;91.10;;;;;;5114635;28;20032;-74
2022/11/22 05:30:05;;;;;;;5.88;1.42;;;6.40;91.10;;;;;;5114615;28;20032;-74
2022/11/22 05:32:32;;;;;;;8.00;1.48;;;6.40;91.10;;;;;;5114435;28;20024;-74
2022/11/22 05:34:57;;;;;;;4.03;1.25;;;6.40;91.20;;;;;;5113308;28;20031;-74
2022/11/22 05:37:23;;;;;;;4.93;1.88;;;6.40;91.10;;;;;;5114492;28;20048;-74
2022/11/22 05:39:49;;;;;;;4.13;1.20;;;6.30;90.90;;;;;;5114268;28;20020;-74
2022/11/22 05:42:15;;;;;;;11.00;1.95;;;6.30;91.00;;;;;;5113166;28;20040;-74
2022/11/22 05:44:40;;;;;;;3.65;1.45;;;6.30;91.00;;;;;;5114161;28;20035;-74
2022/11/22 05:47:06;;;;;;;2.60;1.00;;;6.30;90.90;;;;;;5114075;28;20093;-74
2022/11/22 05:49:32;;;;;;;2.92;0.80;;;6.30;91.20;;;;;;5114130;28;20028;-74
2022/11/22 05:51:58;;;;;;;3.97;1.15;;;6.30;90.80;;;;;;5096145;28;20020;-74
2022/11/22 05:54:23;;;;;;;6.30;1.30;;;6.20;90.90;;;;;;5114026;28;20034;-74
2022/11/22 05:56:49;;;;;;;10.32;1.65;;;6.20;90.70;;;;;;5114006;28;20094;-74
2022/11/22 05:59:14;;;;;;;15.82;1.50;;;6.20;90.90;;;;;;5095986;28;20046;-74
2022/11/22 06:01:40;;;;;;;10.45;1.83;;;6.20;91.00;;;;;;5113898;28;20092;-75
2022/11/22 06:04:06;;;;;;;7.55;1.55;;;6.20;90.90;;;;;;5113081;28;20032;-74
2022/11/22 06:06:31;;;;;;;8.52;1.45;;;6.20;90.90;;;;;;5112785;28;20494;-75
2022/11/22 06:08:58;;;;;;;7.95;1.67;;;6.20;90.90;;;;;;5113539;28;20048;-74
2022/11/22 06:11:25;;;;;;;11.38;1.80;;;6.20;90.90;;;;;;5113797;28;20072;-74
2022/11/22 06:13:53;;;;;;;6.63;1.30;;;6.10;90.80;;;;;;5113666;28;20016;-74
2022/11/22 06:16:19;;;;;;;5.32;1.58;;;6.10;90.90;;;;;;5113713;28;20024;-73
2022/11/22 06:18:45;;;;;;;4.22;1.70;;;6.10;90.90;;;;;;5113678;28;20028;-73
2022/11/22 06:21:22;;;;;;;3.20;0.90;;;6.10;91.00;;;;;;5113665;28;20020;-73
2022/11/22 06:23:48;;;;;;;6.22;1.40;;;6.10;90.90;;;;;;5113793;28;20033;-73
2022/11/22 06:26:16;;;;;;;3.80;1.23;;;6.10;90.90;;;;;;5113479;28;20036;-73
2022/11/22 06:28:43;;;;;;;8.60;1.38;;;6.10;90.80;;;;;;5113552;28;20027;-73
2022/11/22 06:31:14;;;;;;;4.00;1.00;;;6.10;90.80;;;;;;5113555;28;20025;-73
2022/11/22 06:33:41;;;;;;;12.23;1.25;;;6.00;90.90;;;;;;5112553;28;20035;-72
2022/11/22 06:36:12;;;;;;;2.05;0.82;;;6.00;90.80;;;;;;5113509;28;20113;-72
2022/11/22 06:38:39;;;;;;;5.10;1.45;;;6.00;91.00;;;;;;5112536;28;20016;-73
2022/11/22 06:41:10;;;;;;;10.10;1.10;;;6.00;91.00;;;;;;5113426;28;20028;-73
2022/11/22 06:43:38;;;;;;;10.05;1.10;;;6.00;91.00;;;;;;5113422;28;20024;-73
2022/11/22 06:46:05;;;;;;;5.18;1.10;;;5.90;91.00;;;;;;5113440;28;20024;-73
2022/11/22 06:48:33;;;;;;;5.57;1.05;;;5.90;91.00;;;;;;5113398;28;20020;-73
2022/11/22 06:51:17;;;;;;;6.18;1.42;;;5.90;90.90;;;;;;5113296;28;20506;-73
2022/11/22 06:53:43;;;;;;;8.30;1.40;;;5.90;91.10;;;;;;5113368;28;20040;-73
2022/11/22 06:56:11;;;;;;;5.50;0.98;;;5.90;91.10;;;;;;5112313;28;20028;-73
2022/11/22 06:58:37;;;;;;;9.05;1.58;;;5.90;91.10;;;;;;5113225;28;20031;-73
2022/11/22 07:01:06;;;;;;;2.00;1.10;;;5.90;91.00;;;;;;5095398;28;20044;-73
2022/11/22 07:03:33;;;;;;;7.70;1.42;;;6.00;91.00;;;;;;5113189;28;20020;-74
2022/11/22 07:05:59;;;;;;;10.95;1.65;;;6.00;90.90;;;;;;5113110;28;20111;-74
2022/11/22 07:08:24;;;;;;;9.52;1.30;;;6.00;90.80;;;;;;5113077;28;20016;-73
2022/11/22 07:10:50;;;;;;;5.18;1.15;;;6.00;90.80;;;;;;5113029;28;20079;-73
2022/11/22 07:13:16;;;;;;;5.40;1.00;;;6.00;90.80;;;;;;5113142;28;20051;-73
2022/11/22 07:15:41;;;;;;;6.13;1.27;;;6.00;90.80;;;;;;5114791;28;20165;-73
2022/11/22 07:18:07;;;;;;;6.50;2.05;;;5.90;90.90;;;;;;5117085;28;20034;-73
2022/11/22 07:20:33;;;;;;;5.13;1.65;;;5.90;90.90;;;;;;5116980;28;20032;-73
2022/11/22 07:22:58;;;;;;;3.72;0.77;;;5.90;90.90;;;;;;5116937;28;20020;-74
2022/11/22 07:25:24;;;;;;;4.65;1.20;;;5.90;90.90;;;;;;5116800;28;20057;-73
2022/11/22 07:27:52;;;;;;;6.00;1.67;;;5.90;91.00;;;;;;5115912;28;20029;-73
2022/11/22 07:30:18;;;;;;;2.80;1.00;;;5.90;91.00;;;;;;5116775;28;20032;-73
2022/11/22 07:32:47;;;;;;;5.82;1.08;;;5.90;91.20;;;;;;5115720;28;20043;-73
2022/11/22 07:35:13;;;;;;;4.40;1.13;;;6.00;91.40;;;;;;5115810;28;20040;-74
2022/11/22 07:37:38;;;;;;;5.50;1.27;;;6.00;91.40;;;;;;5116684;28;20070;-73
2022/11/22 07:40:05;;;;;;;2.70;1.35;;;6.00;91.40;;;;;;5115715;28;20491;-73
2022/11/22 07:42:30;;;;;;;6.82;1.42;;;6.10;91.40;;;;;;5115611;28;20118;-73
2022/11/22 07:44:56;;;;;;;4.85;1.45;;;6.10;91.40;;;;;;5115412;28;20028;-74
2022/11/22 07:47:21;;;;;;;4.68;1.25;;;6.20;91.40;;;;;;5116491;28;20079;-74
2022/11/22 07:49:47;;;;;;;4.55;1.08;;;6.20;91.30;;;;;;5098559;28;20564;-73
2022/11/22 07:52:12;;;;;;;3.95;1.30;;;6.20;91.30;;;;;;5115450;28;20028;-73
2022/11/22 07:54:38;;;;;;;2.65;0.95;;;6.20;91.20;;;;;;5115347;28;20040;-73
2022/11/22 07:57:03;;;;;;;2.83;0.73;;;6.20;91.20;;;;;;5116285;28;20028;-73
2022/11/22 07:59:29;;;;;;;3.25;1.05;;;6.20;91.10;;;;;;5115179;28;20035;-73
2022/11/22 08:01:55;;;;;;;5.80;1.10;;;6.30;91.10;;;;;;5116189;28;20028;-73
2022/11/22 08:04:20;;;;;;;4.93;1.08;;;6.30;91.00;;;;;;5115253;28;20039;-73
2022/11/22 08:06:46;;;;;;;2.72;0.98;;;6.30;91.00;;;;;;5116021;28;20032;-73
2022/11/22 08:09:12;;;;;;;7.65;1.40;;;6.30;91.10;;;;;;5115762;28;20044;-73
2022/11/22 08:11:37;;;;;;;4.80;1.60;;;6.30;91.00;;;;;;5115114;28;20024;-74
2022/11/22 08:14:03;;;;;;;3.80;1.00;;;6.40;90.80;;;;;;5114911;28;20028;-74
2022/11/22 08:16:29;;;;;;;4.68;1.00;;;6.40;90.80;;;;;;5115911;28;20056;-74
2022/11/22 08:18:54;;;;;;;3.70;1.10;;;6.40;90.50;;;;;;5114971;28;20028;-73
2022/11/22 08:21:20;;;;;;;14.75;1.70;;;6.40;90.70;;;;;;5097990;28;20028;-73
2022/11/22 08:23:47;;;;;;;5.05;1.10;;;6.50;90.70;;;;;;5114869;28;20055;-74
2022/11/22 08:26:15;;;;;;;4.43;1.15;;;6.50;90.80;;;;;;5115441;28;20032;-73
2022/11/22 08:28:41;;;;;;;10.02;1.75;;;6.50;90.50;;;;;;5115090;28;20016;-74
2022/11/22 08:31:13;;;;;;;5.13;1.58;;;6.50;90.50;;;;;;5115629;28;20539;-73
2022/11/22 08:33:40;;;;;;;5.30;1.30;;;6.50;90.30;;;;;;5115628;28;20020;-73
2022/11/22 08:36:06;;;;;;;5.28;1.02;;;6.60;90.40;;;;;;5115518;28;20053;-73
2022/11/22 08:38:32;;;;;;;3.20;1.02;;;6.60;90.40;;;;;;5097750;28;20114;-73
2022/11/22 08:40:58;;;;;;;6.47;1.10;;;6.60;90.90;;;;;;5115424;28;20024;-73
2022/11/22 08:43:24;;;;;;;7.07;1.55;;;6.60;90.40;;;;;;5115515;28;20058;-74
2022/11/22 08:45:55;;;;;;;3.45;1.27;;;6.60;90.40;;;;;;5115272;28;20035;-74
2022/11/22 08:48:21;;;;;;;7.80;1.10;;;6.70;90.50;;;;;;5114475;28;20027;-73
2022/11/22 08:50:55;;;;;;;7.82;1.48;;;6.70;90.40;;;;;;5115250;28;20024;-73
2022/11/22 08:53:21;;;;;;;3.30;1.20;;;6.70;90.30;;;;;;5115235;28;20071;-73
2022/11/22 08:55:47;;;;;;;4.28;1.25;;;6.80;90.20;;;;;;5114153;28;20032;-73
2022/11/22 08:58:13;;;;;;;7.90;2.13;;;7.00;90.10;;;;;;5115101;28;20099;-74
2022/11/22 09:00:39;;;;;;;10.23;2.10;;;7.10;89.70;;;;;;5113990;28;20020;-74
2022/11/22 09:03:05;;;;;;;6.10;1.13;;;7.10;89.60;;;;;;5115014;28;20028;-73
2022/11/22 09:05:31;;;;;;;4.10;1.48;;;7.10;89.10;;;;;;5114876;28;20043;-74
2022/11/22 09:07:57;;;;;;;6.05;1.33;;;7.10;89.30;;;;;;5114799;28;20032;-73
2022/11/22 09:10:23;;;;;;;5.18;1.15;;;7.10;88.80;;;;;;5114716;28;20040;-74
2022/11/22 09:12:49;;;;;;;3.97;1.05;;;7.00;88.50;;;;;;5114787;28;20036;-74
2022/11/22 09:15:15;;;;;;;4.72;1.15;;;7.10;89.70;;;;;;5114739;28;20043;-73
2022/11/22 09:17:41;;;;;;;5.28;1.27;;;7.10;89.40;;;;;;5114720;28;20028;-73
2022/11/22 09:20:07;;;;;;;6.28;1.20;;;7.10;89.90;;;;;;5113690;28;20032;-73
2022/11/22 09:22:33;;;;;;;5.43;1.13;;;7.00;89.30;;;;;;5113713;28;20024;-74
2022/11/22 09:24:59;;;;;;;2.47;0.95;;;7.10;89.30;;;;;;5114460;28;20028;-74
2022/11/22 09:27:25;;;;;;;11.48;1.25;;;7.10;89.50;;;;;;5113491;28;20036;-74
2022/11/22 09:29:51;;;;;;;2.58;1.10;;;7.10;89.40;;;;;;5114529;28;20024;-73
2022/11/22 09:32:17;;;;;;;4.80;1.42;;;7.10;89.00;;;;;;5113530;28;20032;-73
2022/11/22 09:34:42;;;;;;;7.53;1.40;;;7.20;89.30;;;;;;5114398;28;20024;-74
2022/11/22 09:37:08;;;;;;;4.63;1.23;;;7.20;90.00;;;;;;5114347;28;20020;-73
2022/11/22 09:39:33;;;;;;;5.32;1.10;;;7.30;89.20;;;;;;5114235;28;20049;-74
2022/11/22 09:42:14;;;;;;;2.08;0.80;;;7.30;88.40;;;;;;5113394;28;20035;-73
2022/11/22 09:44:45;;;;;;;3.17;0.93;;;7.30;89.30;;;;;;5113204;28;20031;-73
2022/11/22 09:47:35;;;;;;;2.83;1.10;;;7.30;88.40;;;;;;5114031;28;20085;-74
2022/11/22 09:50:25;;;;;;;2.10;0.80;;;7.30;88.80;;;;;;5114176;28;20035;-73
2022/11/22 09:53:01;;;;;;;2.30;0.85;;;7.30;88.80;;;;;;5114158;28;20016;-73
2022/11/22 09:55:41;;;;;;;3.70;0.73;;;7.30;89.30;;;;;;5114209;28;20045;-73
2022/11/22 09:58:26;;;;;;;1.65;0.93;;;7.30;88.50;;;;;;5114038;28;20032;-73
2022/11/22 10:01:00;;;;;;;3.80;0.68;;;7.30;89.50;;;;;;5114029;28;20024;-73
2022/11/22 10:03:46;;;;;;;2.65;0.40;;;7.30;89.20;;;;;;5113943;28;20089;-73
2022/11/22 10:06:29;;;;;;;4.07;0.82;;;7.40;89.50;;;;;;5113838;28;20028;-73
2022/11/22 10:08:57;;;;;;;;;;;7.50;88.50;;;;;;5112765;28;20049;-74
2022/11/22 10:11:29;;;;;;;1.80;1.25;;;7.50;88.10;;;;;;5113753;28;19930;-74
2022/11/22 10:14:00;;;;;;;3.50;0.65;;;7.50;88.10;;;;;;5113817;28;20020;-73
2022/11/22 10:16:40;;;;;;;3.58;0.82;;;7.50;87.40;;;;;;5113754;28;20062;-73
2022/11/22 10:19:22;;;;;;;2.67;0.85;;;7.60;88.60;;;;;;5113873;28;20024;-73
2022/11/22 10:21:48;;;;;;;;;;;7.60;87.50;;;;;;5114223;28;20088;-74
2022/11/22 10:24:15;;;;;;;3.15;0.88;;;7.60;87.70;;;;;;5113635;28;19942;-73
2022/11/22 10:26:41;;;;;;;3.83;0.57;;;7.60;88.10;;;;;;5113522;28;20020;-73
2022/11/22 10:29:30;;;;;;;3.90;1.20;;;7.60;88.10;;;;;;5112510;28;20093;-73
2022/11/22 10:32:08;;;;;;;3.47;0.73;;;7.60;87.70;;;;;;5113722;28;20074;-73
2022/11/22 10:34:49;;;;;;;2.95;1.10;;;7.60;87.20;;;;;;5113538;28;20032;-73
2022/11/22 10:37:29;;;;;;;2.95;0.85;;;7.60;88.00;;;;;;5113519;28;20020;-73
2022/11/22 10:40:17;;;;;;;1.35;0.57;;;7.60;87.70;;;;;;5113499;28;20517;-73
2022/11/22 10:42:59;;;;;;;1.65;0.50;;;7.60;87.40;;;;;;5113487;28;20050;-73
2022/11/22 10:46:06;;;;;;;4.97;0.60;;;7.60;87.40;;;;;;5112451;28;20024;-73
2022/11/22 10:48:43;;;;;;;3.90;0.98;;;7.60;87.90;;;;;;5031395;28;20085;-73
2022/11/22 10:51:52;;;;;;;0.95;0.70;;;7.60;88.50;;;;;;5108941;28;20024;-73
2022/11/22 10:55:08;;;;;;;3.70;0.85;;;7.60;87.90;;;;;;5079108;28;20032;-73
2022/11/22 10:58:06;;;;;;;5.00;1.52;;;7.60;87.70;;;;;;5057136;28;20040;-73
2022/11/22 11:00:35;;;;;;;1.60;0.80;;;7.70;87.90;;;;;;5111300;28;20032;-73
2022/11/22 11:03:33;;;;;;;2.28;0.82;;;7.80;87.40;;;;;;5117353;28;20024;-73
2022/11/22 11:06:13;;;;;;;3.45;1.00;;;7.90;87.10;;;;;;5117362;28;20016;-73
2022/11/22 11:08:47;;;;;;;1.48;0.90;;;7.90;86.80;;;;;;5116177;28;20154;-73
2022/11/22 11:11:14;;;;;;;0.60;0.47;;;7.90;86.80;;;;;;5117077;28;20043;-73
2022/11/22 11:13:51;;;;;;;3.20;0.55;;;7.90;86.50;;;;;;5117157;28;20016;-73
2022/11/22 11:16:24;;;;;;;0.90;0.60;;;7.90;86.20;;;;;;5117249;28;20027;-73
2022/11/22 11:18:58;;;;;;;1.52;0.88;;;8.00;85.90;;;;;;5116070;28;20062;-73
2022/11/22 11:21:26;;;;;;;1.95;0.50;;;8.00;85.40;;;;;;5117048;28;20024;-73
2022/11/22 11:23:51;;;;;;;1.88;0.98;;;8.00;85.50;;;;;;5115906;28;20035;-73
2022/11/22 11:26:21;;;;;;;2.92;0.80;;;8.10;85.20;;;;;;5115957;28;20036;-73
2022/11/22 11:28:48;;;;;;;2.22;0.57;;;8.10;84.40;;;;;;5115898;28;20016;-73
2022/11/22 11:31:17;;;;;;;1.35;0.50;;;8.10;84.40;;;;;;5116784;28;20028;-73
2022/11/22 11:33:43;;;;;;;0.57;0.30;;;8.10;84.10;;;;;;5116757;28;20020;-73
2022/11/22 11:36:22;;;;;;;1.23;0.73;;;8.20;84.30;;;;;;5115778;28;20043;-74
2022/11/22 11:38:54;;;;;;;0.70;0.52;;;8.20;84.80;;;;;;5116675;28;20052;-75
2022/11/22 11:41:23;;;;;;;1.27;0.60;;;8.20;84.30;;;;;;5116840;28;20020;-73
2022/11/22 11:43:51;;;;;;;1.17;0.60;;;8.30;84.00;;;;;;5116542;28;20063;-73
2022/11/22 11:46:21;;;;;;;2.47;0.60;;;8.30;83.90;;;;;;5116445;28;20024;-73
2022/11/22 11:48:48;;;;;;;0.35;0.30;;;8.40;84.10;;;;;;5115251;28;20084;-73
2022/11/22 11:51:24;;;;;;;1.50;0.50;;;8.40;84.00;;;;;;5115521;28;20023;-73
2022/11/22 11:54:08;;;;;;;0.68;0.47;;;8.40;83.60;;;;;;5116444;28;20050;-73
2022/11/22 11:56:38;;;;;;;2.85;0.52;;;8.40;82.90;;;;;;5116388;28;20028;-73
2022/11/22 11:59:36;;;;;;;0.75;0.40;;;8.40;83.30;;;;;;5115300;28;20036;-73
2022/11/22 12:02:03;;;;;;;1.65;0.60;;;8.40;83.50;;;;;;5115140;28;20030;-73
2022/11/22 12:04:33;;;;;;;0.60;0.40;;;8.40;83.80;;;;;;5116156;28;20020;-74
2022/11/22 12:07:15;;;;;;;0.73;0.25;;;8.40;83.10;;;;;;5116098;28;20028;-74
2022/11/22 12:09:49;;;;;;;1.13;0.60;;;8.40;83.60;;;;;;5115877;28;20040;-74
2022/11/22 12:12:59;;;;;;;1.88;0.50;;;8.40;84.00;;;;;;5115089;28;20042;-73
2022/11/22 12:15:40;;;;;;;1.13;0.40;;;8.40;83.40;;;;;;5116020;28;20094;-73
2022/11/22 12:18:43;;;;;;;0.52;0.30;;;8.30;82.40;;;;;;5116105;28;20032;-72
2022/11/22 12:21:41;;;;;;;1.73;0.60;;;8.40;83.00;;;;;;5113428;28;20043;-73
2022/11/22 12:24:20;;;;;;;1.60;0.60;;;8.30;82.60;;;;;;5115854;28;20028;-72
2022/11/22 12:26:46;;;;;;;0.30;0.22;;;8.30;81.90;;;;;;5115668;28;20031;-74
2022/11/22 12:29:13;;;;;;;2.75;0.55;;;8.40;81.50;;;;;;5114665;28;20036;-74
2022/11/22 12:31:48;;;;;;;2.30;0.38;;;8.30;81.50;;;;;;5097817;28;20020;-73
2022/11/22 12:34:24;;;;;;;0.82;0.57;;;8.30;81.80;;;;;;5115650;28;20038;-72
2022/11/22 12:37:07;;;;;;;1.08;0.63;;;8.30;82.40;;;;;;5115568;28;20027;-72
2022/11/22 12:39:35;;;;;;;0.35;0.35;;;8.30;82.20;;;;;;5115579;28;20031;-73
2022/11/22 12:42:14;;;;;;;0.65;0.30;;;8.30;81.50;;;;;;5115437;28;20028;-74
2022/11/22 12:44:50;;;;;;;1.50;0.30;;;8.40;82.40;;;;;;5115452;28;20024;-73
2022/11/22 12:47:20;;;;;;;0.88;0.32;;;8.40;82.40;;;;;;5114294;28;20030;-73
2022/11/22 12:49:52;;;;;;;1.27;0.73;;;8.40;82.50;;;;;;5114329;28;20017;-72
2022/11/22 12:52:30;;;;;;;1.35;0.57;;;8.30;81.90;;;;;;5114247;28;20019;-73
2022/11/22 12:55:14;;;;;;;2.10;0.47;;;8.40;82.20;;;;;;5115357;28;20044;-72
2022/11/22 12:57:53;;;;;;;0.60;0.35;;;8.40;83.20;;;;;;5115322;28;20028;-73
2022/11/22 13:00:23;;;;;;;0.35;0.22;;;8.40;81.60;;;;;;5114089;28;20028;-72
2022/11/22 13:02:48;;;;;;;0.50;0.30;;;8.40;82.40;;;;;;5114040;28;20027;-73
2022/11/22 13:05:26;;;;;;;0.68;0.40;;;8.40;82.20;;;;;;5114922;28;20028;-73
2022/11/22 13:08:13;;;;;;;4.38;0.40;;;8.40;82.00;;;;;;5113959;28;20016;-73
2022/11/22 13:10:56;;;;;;;2.15;0.32;;;8.40;82.10;;;;;;5114754;28;20043;-75
2022/11/22 13:13:24;;;;;;;;;;;8.40;82.60;;;;;;5115000;28;20024;-73
2022/11/22 13:15:52;;;;;;;1.88;0.47;;;8.50;83.20;;;;;;5114794;28;19904;-72
2022/11/22 13:18:19;;;;;;;0.10;0.10;;;8.50;82.80;;;;;;5114732;28;20028;-73
2022/11/22 13:21:03;;;;;;;0.75;0.38;;;8.40;82.70;;;;;;5114680;28;20039;-73